sensor_id;sensor_type;location;lat;lon;timestamp;pressure;altitude;pressure_sealevel;temperature;humidity
77019;BME280;66044;53.142;17.962;2023-05-10T00:01:42;101404.05;;;10.17;43.25
77019;BME280;66044;53.142;17.962;2023-05-10T00:04:08;101401.79;;;10.15;43.41
77019;BME280;66044;53.142;17.962;2023-05-10T00:06:35;101398.46;;;10.13;43.50
77019;BME280;66044;53.142;17.962;2023-05-10T00:09:01;101401.35;;;10.11;43.31
77019;BME280;66044;53.142;17.962;2023-05-10T00:11:28;101398.89;;;10.08;43.51
77019;BME280;66044;53.142;17.962;2023-05-10T00:13:54;101402.25;;;10.04;43.54
77019;BME280;66044;53.142;17.962;2023-05-10T00:16:21;101407.05;;;10.03;43.52
77019;BME280;66044;53.142;17.962;2023-05-10T00:18:47;101402.19;;;10.02;43.69
77019;BME280;66044;53.142;17.962;2023-05-10T00:21:14;101398.70;;;9.99;43.40
77019;BME280;66044;53.142;17.962;2023-05-10T00:23:40;101398.31;;;9.98;43.59
77019;BME280;66044;53.142;17.962;2023-05-10T00:26:07;101392.07;;;9.96;43.50
77019;BME280;66044;53.142;17.962;2023-05-10T00:28:33;101390.51;;;9.94;43.71
77019;BME280;66044;53.142;17.962;2023-05-10T00:31:00;101387.52;;;9.91;43.68
77019;BME280;66044;53.142;17.962;2023-05-10T00:33:26;101384.09;;;9.88;43.64
77019;BME280;66044;53.142;17.962;2023-05-10T00:35:53;101383.43;;;9.86;43.90
77019;BME280;66044;53.142;17.962;2023-05-10T00:38:19;101382.96;;;9.85;43.89
77019;BME280;66044;53.142;17.962;2023-05-10T00:40:46;101376.88;;;9.83;43.65
77019;BME280;66044;53.142;17.962;2023-05-10T00:43:12;101379.46;;;9.80;43.94
77019;BME280;66044;53.142;17.962;2023-05-10T00:45:39;101376.84;;;9.75;44.04
77019;BME280;66044;53.142;17.962;2023-05-10T00:48:06;101380.23;;;9.66;44.03
77019;BME280;66044;53.142;17.962;2023-05-10T00:50:33;101378.09;;;9.56;44.24
77019;BME280;66044;53.142;17.962;2023-05-10T00:53:00;101377.64;;;9.44;44.56
77019;BME280;66044;53.142;17.962;2023-05-10T00:55:27;101376.51;;;9.32;44.76
77019;BME280;66044;53.142;17.962;2023-05-10T00:57:53;101372.86;;;9.19;44.72
77019;BME280;66044;53.142;17.962;2023-05-10T01:00:20;101370.10;;;9.06;45.10
77019;BME280;66044;53.142;17.962;2023-05-10T01:02:47;101372.01;;;8.94;45.51
77019;BME280;66044;53.142;17.962;2023-05-10T01:05:14;101370.44;;;8.84;45.57
77019;BME280;66044;53.142;17.962;2023-05-10T01:07:41;101371.35;;;8.74;45.65
77019;BME280;66044;53.142;17.962;2023-05-10T01:10:08;101370.17;;;8.66;45.73
77019;BME280;66044;53.142;17.962;2023-05-10T01:12:37;101370.16;;;8.58;45.95
77019;BME280;66044;53.142;17.962;2023-05-10T01:15:06;101362.16;;;8.49;45.97
77019;BME280;66044;53.142;17.962;2023-05-10T01:17:35;101361.83;;;8.41;45.97
77019;BME280;66044;53.142;17.962;2023-05-10T01:20:04;101365.70;;;8.34;46.55
77019;BME280;66044;53.142;17.962;2023-05-10T01:28:23;101358.30;;;8.15;47.02
77019;BME280;66044;53.142;17.962;2023-05-10T01:33:43;101350.09;;;8.04;47.35
77019;BME280;66044;53.142;17.962;2023-05-10T01:36:32;101348.54;;;8.00;47.41
77019;BME280;66044;53.142;17.962;2023-05-10T01:39:05;101342.85;;;7.95;47.76
77019;BME280;66044;53.142;17.962;2023-05-10T01:41:40;101340.21;;;7.91;47.73
77019;BME280;66044;53.142;17.962;2023-05-10T01:44:17;101340.88;;;7.88;47.78
77019;BME280;66044;53.142;17.962;2023-05-10T01:46:53;101339.95;;;7.86;47.94
77019;BME280;66044;53.142;17.962;2023-05-10T01:49:26;101337.56;;;7.83;48.31
77019;BME280;66044;53.142;17.962;2023-05-10T01:52:08;101337.67;;;7.81;48.18
77019;BME280;66044;53.142;17.962;2023-05-10T01:54:38;101338.05;;;7.80;48.38
77019;BME280;66044;53.142;17.962;2023-05-10T01:57:08;101338.27;;;7.79;48.22
77019;BME280;66044;53.142;17.962;2023-05-10T01:59:39;101333.77;;;7.80;48.63
77019;BME280;66044;53.142;17.962;2023-05-10T02:02:10;101331.86;;;7.78;48.28
77019;BME280;66044;53.142;17.962;2023-05-10T02:04:39;101326.89;;;7.78;48.41
77019;BME280;66044;53.142;17.962;2023-05-10T02:07:07;101328.55;;;7.78;48.63
77019;BME280;66044;53.142;17.962;2023-05-10T02:09:35;101329.11;;;7.77;48.62
77019;BME280;66044;53.142;17.962;2023-05-10T02:12:03;101322.92;;;7.74;48.53
77019;BME280;66044;53.142;17.962;2023-05-10T02:14:34;101323.02;;;7.73;49.02
77019;BME280;66044;53.142;17.962;2023-05-10T02:17:03;101321.05;;;7.71;48.92
77019;BME280;66044;53.142;17.962;2023-05-10T02:19:32;101317.48;;;7.70;49.05
77019;BME280;66044;53.142;17.962;2023-05-10T02:22:00;101314.95;;;7.68;49.32
77019;BME280;66044;53.142;17.962;2023-05-10T02:24:28;101314.60;;;7.67;49.04
77019;BME280;66044;53.142;17.962;2023-05-10T02:26:55;101307.45;;;7.66;49.20
77019;BME280;66044;53.142;17.962;2023-05-10T02:29:27;101312.55;;;7.65;49.39
77019;BME280;66044;53.142;17.962;2023-05-10T02:31:54;101308.73;;;7.63;49.54
77019;BME280;66044;53.142;17.962;2023-05-10T02:34:23;101312.31;;;7.62;49.18
77019;BME280;66044;53.142;17.962;2023-05-10T02:36:50;101312.16;;;7.61;49.51
77019;BME280;66044;53.142;17.962;2023-05-10T02:39:19;101313.55;;;7.60;49.45
77019;BME280;66044;53.142;17.962;2023-05-10T02:41:48;101310.16;;;7.59;49.64
77019;BME280;66044;53.142;17.962;2023-05-10T02:44:17;101313.13;;;7.58;49.60
77019;BME280;66044;53.142;17.962;2023-05-10T02:46:44;101311.76;;;7.56;49.85
77019;BME280;66044;53.142;17.962;2023-05-10T02:49:11;101313.91;;;7.56;49.69
77019;BME280;66044;53.142;17.962;2023-05-10T02:51:42;101312.95;;;7.55;49.74
77019;BME280;66044;53.142;17.962;2023-05-10T02:54:18;101312.77;;;7.53;49.93
77019;BME280;66044;53.142;17.962;2023-05-10T02:56:51;101310.23;;;7.53;49.88
77019;BME280;66044;53.142;17.962;2023-05-10T02:59:20;101308.63;;;7.53;49.86
77019;BME280;66044;53.142;17.962;2023-05-10T03:01:46;101311.58;;;7.54;49.66
77019;BME280;66044;53.142;17.962;2023-05-10T03:04:13;101312.16;;;7.55;49.71
77019;BME280;66044;53.142;17.962;2023-05-10T03:06:40;101315.39;;;7.56;49.99
77019;BME280;66044;53.142;17.962;2023-05-10T03:09:07;101314.80;;;7.58;50.06
77019;BME280;66044;53.142;17.962;2023-05-10T03:17:13;101314.71;;;7.66;49.79
77019;BME280;66044;53.142;17.962;2023-05-10T03:19:53;101312.84;;;7.69;50.10
77019;BME280;66044;53.142;17.962;2023-05-10T03:22:25;101313.59;;;7.74;49.72
77019;BME280;66044;53.142;17.962;2023-05-10T03:24:56;101309.61;;;7.78;49.67
77019;BME280;66044;53.142;17.962;2023-05-10T03:27:25;101312.16;;;7.83;50.02
77019;BME280;66044;53.142;17.962;2023-05-10T03:29:53;101313.88;;;7.86;49.71
77019;BME280;66044;53.142;17.962;2023-05-10T03:32:22;101315.36;;;7.90;49.72
77019;BME280;66044;53.142;17.962;2023-05-10T03:34:48;101311.09;;;7.93;49.72
77019;BME280;66044;53.142;17.962;2023-05-10T03:37:15;101308.70;;;7.99;49.67
77019;BME280;66044;53.142;17.962;2023-05-10T03:39:41;101306.89;;;8.04;49.53
77019;BME280;66044;53.142;17.962;2023-05-10T03:42:08;101306.30;;;8.08;49.60
77019;BME280;66044;53.142;17.962;2023-05-10T03:44:34;101306.41;;;8.11;49.38
77019;BME280;66044;53.142;17.962;2023-05-10T03:47:01;101310.61;;;8.16;49.59
77019;BME280;66044;53.142;17.962;2023-05-10T03:49:27;101308.70;;;8.21;49.23
77019;BME280;66044;53.142;17.962;2023-05-10T03:51:53;101307.84;;;8.28;49.62
77019;BME280;66044;53.142;17.962;2023-05-10T03:54:20;101310.10;;;8.35;49.04
77019;BME280;66044;53.142;17.962;2023-05-10T03:56:46;101307.94;;;8.43;48.73
77019;BME280;66044;53.142;17.962;2023-05-10T03:59:14;101307.54;;;8.53;48.83
77019;BME280;66044;53.142;17.962;2023-05-10T04:01:40;101306.26;;;8.64;48.72
77019;BME280;66044;53.142;17.962;2023-05-10T04:04:07;101308.73;;;8.75;48.28
77019;BME280;66044;53.142;17.962;2023-05-10T04:06:33;101306.54;;;8.88;48.04
77019;BME280;66044;53.142;17.962;2023-05-10T04:08:59;101306.20;;;9.06;47.55
77019;BME280;66044;53.142;17.962;2023-05-10T04:11:30;101307.49;;;9.28;47.35
77019;BME280;66044;53.142;17.962;2023-05-10T04:13:56;101308.85;;;9.49;46.77
77019;BME280;66044;53.142;17.962;2023-05-10T04:16:23;101310.04;;;10.04;46.20
77019;BME280;66044;53.142;17.962;2023-05-10T04:18:49;101311.86;;;11.76;43.76
77019;BME280;66044;53.142;17.962;2023-05-10T04:21:16;101318.38;;;13.87;41.36
77019;BME280;66044;53.142;17.962;2023-05-10T04:23:42;101322.52;;;15.66;38.15
77019;BME280;66044;53.142;17.962;2023-05-10T04:26:08;101320.53;;;17.01;35.53
77019;BME280;66044;53.142;17.962;2023-05-10T04:28:35;101324.13;;;18.00;33.15
77019;BME280;66044;53.142;17.962;2023-05-10T04:31:10;101323.28;;;18.59;31.31
77019;BME280;66044;53.142;17.962;2023-05-10T04:33:37;101325.88;;;19.16;30.24
77019;BME280;66044;53.142;17.962;2023-05-10T04:36:04;101329.95;;;19.76;29.33
77019;BME280;66044;53.142;17.962;2023-05-10T04:38:30;101328.98;;;20.37;28.23
77019;BME280;66044;53.142;17.962;2023-05-10T04:41:04;101325.36;;;21.00;27.61
77019;BME280;66044;53.142;17.962;2023-05-10T04:43:32;101323.80;;;21.94;27.05
77019;BME280;66044;53.142;17.962;2023-05-10T04:45:58;101324.04;;;23.05;26.24
77019;BME280;66044;53.142;17.962;2023-05-10T04:48:25;101321.05;;;24.15;25.25
77019;BME280;66044;53.142;17.962;2023-05-10T04:50:51;101323.69;;;25.06;23.53
77019;BME280;66044;53.142;17.962;2023-05-10T04:53:17;101330.91;;;25.43;23.38
77019;BME280;66044;53.142;17.962;2023-05-10T04:55:44;101330.80;;;26.24;22.12
77019;BME280;66044;53.142;17.962;2023-05-10T04:58:10;101331.71;;;26.56;21.63
77019;BME280;66044;53.142;17.962;2023-05-10T05:00:37;101330.45;;;26.94;20.96
77019;BME280;66044;53.142;17.962;2023-05-10T05:03:04;101329.58;;;26.90;20.46
77019;BME280;66044;53.142;17.962;2023-05-10T05:05:30;101332.72;;;27.00;20.27
77019;BME280;66044;53.142;17.962;2023-05-10T05:07:57;101324.31;;;27.31;20.43
77019;BME280;66044;53.142;17.962;2023-05-10T05:10:23;101321.77;;;27.90;19.92
77019;BME280;66044;53.142;17.962;2023-05-10T05:12:50;101321.53;;;28.28;19.47
77019;BME280;66044;53.142;17.962;2023-05-10T05:15:16;101319.01;;;28.85;19.13
77019;BME280;66044;53.142;17.962;2023-05-10T05:17:43;101324.70;;;29.41;18.17
77019;BME280;66044;53.142;17.962;2023-05-10T05:20:10;101325.07;;;29.53;18.12
77019;BME280;66044;53.142;17.962;2023-05-10T05:22:37;101326.75;;;29.97;17.97
77019;BME280;66044;53.142;17.962;2023-05-10T05:25:04;101326.42;;;30.67;17.64
77019;BME280;66044;53.142;17.962;2023-05-10T05:27:31;101330.71;;;31.10;16.96
77019;BME280;66044;53.142;17.962;2023-05-10T05:29:58;101332.79;;;31.32;16.52
77019;BME280;66044;53.142;17.962;2023-05-10T05:32:25;101329.60;;;31.39;16.33
77019;BME280;66044;53.142;17.962;2023-05-10T05:34:51;101331.68;;;31.44;16.39
77019;BME280;66044;53.142;17.962;2023-05-10T05:37:20;101331.79;;;31.68;16.04
77019;BME280;66044;53.142;17.962;2023-05-10T05:39:48;101328.64;;;31.54;15.78
77019;BME280;66044;53.142;17.962;2023-05-10T05:42:14;101327.39;;;31.72;16.02
77019;BME280;66044;53.142;17.962;2023-05-10T05:44:43;101327.95;;;32.33;15.65
77019;BME280;66044;53.142;17.962;2023-05-10T05:47:09;101325.75;;;33.02;15.36
77019;BME280;66044;53.142;17.962;2023-05-10T05:49:36;101325.09;;;33.59;14.91
77019;BME280;66044;53.142;17.962;2023-05-10T05:52:03;101328.21;;;33.66;14.49
77019;BME280;66044;53.142;17.962;2023-05-10T05:54:30;101327.11;;;33.57;14.62
77019;BME280;66044;53.142;17.962;2023-05-10T05:56:58;101327.47;;;33.51;13.91
77019;BME280;66044;53.142;17.962;2023-05-10T05:59:25;101325.88;;;33.10;14.03
77019;BME280;66044;53.142;17.962;2023-05-10T06:01:52;101318.26;;;32.52;14.05
77019;BME280;66044;53.142;17.962;2023-05-10T06:04:19;101313.96;;;32.33;14.57
77019;BME280;66044;53.142;17.962;2023-05-10T06:06:45;101306.52;;;32.92;14.57
77019;BME280;66044;53.142;17.962;2023-05-10T06:09:12;101316.83;;;33.22;14.05
77019;BME280;66044;53.142;17.962;2023-05-10T06:11:38;101318.63;;;33.37;13.95
77019;BME280;66044;53.142;17.962;2023-05-10T06:14:05;101319.21;;;33.53;14.04
77019;BME280;66044;53.142;17.962;2023-05-10T06:16:34;101325.33;;;33.73;13.57
77019;BME280;66044;53.142;17.962;2023-05-10T06:19:01;101323.64;;;34.12;13.69
77019;BME280;66044;53.142;17.962;2023-05-10T06:21:27;101329.48;;;34.80;13.09
77019;BME280;66044;53.142;17.962;2023-05-10T06:23:54;101328.02;;;34.64;12.82
77019;BME280;66044;53.142;17.962;2023-05-10T06:26:20;101329.11;;;33.87;12.95
77019;BME280;66044;53.142;17.962;2023-05-10T06:28:47;101323.39;;;33.21;13.58
77019;BME280;66044;53.142;17.962;2023-05-10T06:31:13;101322.76;;;33.03;13.86
77019;BME280;66044;53.142;17.962;2023-05-10T06:33:39;101323.23;;;33.15;13.72
77019;BME280;66044;53.142;17.962;2023-05-10T06:36:06;101321.54;;;33.57;13.61
77019;BME280;66044;53.142;17.962;2023-05-10T06:38:33;101323.50;;;34.21;13.46
77019;BME280;66044;53.142;17.962;2023-05-10T06:40:59;101324.13;;;34.72;13.07
77019;BME280;66044;53.142;17.962;2023-05-10T06:43:26;101330.32;;;35.38;12.52
77019;BME280;66044;53.142;17.962;2023-05-10T06:45:54;101329.91;;;35.28;12.25
77019;BME280;66044;53.142;17.962;2023-05-10T06:48:21;101325.74;;;35.00;12.40
77019;BME280;66044;53.142;17.962;2023-05-10T06:50:47;101319.59;;;34.99;12.64
77019;BME280;66044;53.142;17.962;2023-05-10T06:53:13;101321.90;;;35.33;12.79
77019;BME280;66044;53.142;17.962;2023-05-10T06:55:40;101321.11;;;36.06;12.47
77019;BME280;66044;53.142;17.962;2023-05-10T06:58:06;101326.27;;;36.59;11.98
77019;BME280;66044;53.142;17.962;2023-05-10T07:00:33;101324.68;;;36.62;11.70
77019;BME280;66044;53.142;17.962;2023-05-10T07:02:59;101325.17;;;36.41;11.85
77019;BME280;66044;53.142;17.962;2023-05-10T07:05:26;101319.51;;;36.95;11.44
77019;BME280;66044;53.142;17.962;2023-05-10T07:07:53;101320.84;;;36.86;11.60
77019;BME280;66044;53.142;17.962;2023-05-10T07:10:20;101322.54;;;36.84;11.54
77019;BME280;66044;53.142;17.962;2023-05-10T07:12:46;101321.56;;;36.42;11.61
77019;BME280;66044;53.142;17.962;2023-05-10T07:15:13;101318.37;;;37.08;11.69
77019;BME280;66044;53.142;17.962;2023-05-10T07:17:39;101320.81;;;37.96;10.99
77019;BME280;66044;53.142;17.962;2023-05-10T07:20:06;101320.55;;;37.40;10.76
77019;BME280;66044;53.142;17.962;2023-05-10T07:22:33;101312.34;;;36.33;11.58
77019;BME280;66044;53.142;17.962;2023-05-10T07:24:59;101313.04;;;36.23;11.78
77019;BME280;66044;53.142;17.962;2023-05-10T07:27:26;101313.84;;;36.38;11.50
77019;BME280;66044;53.142;17.962;2023-05-10T07:29:52;101323.69;;;35.89;11.50
77019;BME280;66044;53.142;17.962;2023-05-10T07:32:19;101308.11;;;34.64;12.08
77019;BME280;66044;53.142;17.962;2023-05-10T07:34:45;101308.46;;;34.20;12.70
77019;BME280;66044;53.142;17.962;2023-05-10T07:37:11;101310.06;;;34.29;12.56
77019;BME280;66044;53.142;17.962;2023-05-10T07:39:38;101306.67;;;34.00;12.79
77019;BME280;66044;53.142;17.962;2023-05-10T07:42:04;101307.00;;;34.01;13.20
77019;BME280;66044;53.142;17.962;2023-05-10T07:44:31;101308.88;;;34.46;12.95
77019;BME280;66044;53.142;17.962;2023-05-10T07:46:58;101301.93;;;34.22;12.95
77019;BME280;66044;53.142;17.962;2023-05-10T07:49:25;101303.96;;;33.82;13.32
77019;BME280;66044;53.142;17.962;2023-05-10T07:51:51;101299.39;;;32.28;13.88
77019;BME280;66044;53.142;17.962;2023-05-10T07:54:18;101295.68;;;29.55;15.45
77019;BME280;66044;53.142;17.962;2023-05-10T07:56:44;101288.70;;;27.00;17.54
77019;BME280;66044;53.142;17.962;2023-05-10T07:59:15;101297.17;;;25.41;18.95
77019;BME280;66044;53.142;17.962;2023-05-10T08:01:42;101283.80;;;24.00;20.34
77019;BME280;66044;53.142;17.962;2023-05-10T08:04:09;101290.01;;;23.02;21.38
77019;BME280;66044;53.142;17.962;2023-05-10T08:06:35;101286.74;;;22.24;22.34
77019;BME280;66044;53.142;17.962;2023-05-10T08:09:02;101282.04;;;21.61;22.91
77019;BME280;66044;53.142;17.962;2023-05-10T08:11:28;101277.55;;;21.17;23.59
77019;BME280;66044;53.142;17.962;2023-05-10T08:13:55;101271.59;;;20.66;24.17
77019;BME280;66044;53.142;17.962;2023-05-10T08:16:21;101268.41;;;20.23;24.89
77019;BME280;66044;53.142;17.962;2023-05-10T08:18:48;101265.45;;;19.90;25.26
77019;BME280;66044;53.142;17.962;2023-05-10T08:21:15;101264.42;;;19.74;25.55
77019;BME280;66044;53.142;17.962;2023-05-10T08:23:42;101269.60;;;19.77;25.78
77019;BME280;66044;53.142;17.962;2023-05-10T08:26:10;101269.94;;;19.65;25.81
77019;BME280;66044;53.142;17.962;2023-05-10T08:28:36;101266.67;;;19.47;25.97
77019;BME280;66044;53.142;17.962;2023-05-10T08:31:04;101266.36;;;19.35;26.32
77019;BME280;66044;53.142;17.962;2023-05-10T08:33:30;101266.15;;;19.13;26.48
77019;BME280;66044;53.142;17.962;2023-05-10T08:35:57;101260.31;;;19.01;26.73
77019;BME280;66044;53.142;17.962;2023-05-10T08:38:23;101268.90;;;18.98;26.86
77019;BME280;66044;53.142;17.962;2023-05-10T08:40:51;101264.76;;;18.86;26.90
77019;BME280;66044;53.142;17.962;2023-05-10T08:43:26;101257.55;;;18.82;26.90
77019;BME280;66044;53.142;17.962;2023-05-10T08:45:54;101264.11;;;18.84;27.12
77019;BME280;66044;53.142;17.962;2023-05-10T08:48:23;101277.58;;;18.78;26.93
77019;BME280;66044;53.142;17.962;2023-05-10T08:50:52;101268.64;;;18.60;27.20
77019;BME280;66044;53.142;17.962;2023-05-10T08:53:20;101268.50;;;18.56;27.50
77019;BME280;66044;53.142;17.962;2023-05-10T08:55:47;101268.37;;;18.58;27.72
77019;BME280;66044;53.142;17.962;2023-05-10T08:58:14;101264.65;;;18.55;27.34
77019;BME280;66044;53.142;17.962;2023-05-10T09:00:41;101261.42;;;18.48;27.26
77019;BME280;66044;53.142;17.962;2023-05-10T09:03:08;101263.77;;;18.40;27.47
77019;BME280;66044;53.142;17.962;2023-05-10T09:05:36;101256.05;;;18.42;27.62
77019;BME280;66044;53.142;17.962;2023-05-10T09:08:02;101264.28;;;18.51;27.86
77019;BME280;66044;53.142;17.962;2023-05-10T09:10:29;101261.13;;;18.61;28.03
77019;BME280;66044;53.142;17.962;2023-05-10T09:12:57;101256.50;;;18.69;27.95
77019;BME280;66044;53.142;17.962;2023-05-10T09:15:24;101250.14;;;18.76;27.70
77019;BME280;66044;53.142;17.962;2023-05-10T09:17:50;101247.65;;;18.75;27.70
77019;BME280;66044;53.142;17.962;2023-05-10T09:20:17;101251.44;;;18.79;27.45
77019;BME280;66044;53.142;17.962;2023-05-10T09:22:43;101254.63;;;18.80;27.57
77019;BME280;66044;53.142;17.962;2023-05-10T09:25:12;101253.41;;;18.76;27.53
77019;BME280;66044;53.142;17.962;2023-05-10T09:27:41;101254.11;;;18.76;27.67
77019;BME280;66044;53.142;17.962;2023-05-10T09:30:23;101249.41;;;18.78;27.54
77019;BME280;66044;53.142;17.962;2023-05-10T09:32:50;101252.32;;;18.87;27.57
77019;BME280;66044;53.142;17.962;2023-05-10T09:35:18;101255.72;;;18.96;27.64
77019;BME280;66044;53.142;17.962;2023-05-10T09:37:50;101259.36;;;18.95;27.29
77019;BME280;66044;53.142;17.962;2023-05-10T09:40:18;101259.88;;;18.87;27.39
77019;BME280;66044;53.142;17.962;2023-05-10T09:42:57;101261.59;;;18.82;26.92
77019;BME280;66044;53.142;17.962;2023-05-10T09:45:28;101256.02;;;18.68;27.17
77019;BME280;66044;53.142;17.962;2023-05-10T09:47:56;101252.57;;;18.67;27.45
77019;BME280;66044;53.142;17.962;2023-05-10T09:50:23;101246.55;;;18.70;27.63
77019;BME280;66044;53.142;17.962;2023-05-10T09:52:54;101241.59;;;18.76;27.41
77019;BME280;66044;53.142;17.962;2023-05-10T09:55:22;101248.48;;;18.69;27.59
77019;BME280;66044;53.142;17.962;2023-05-10T09:57:50;101241.91;;;18.76;27.95
77019;BME280;66044;53.142;17.962;2023-05-10T10:00:24;101239.92;;;18.90;28.02
77019;BME280;66044;53.142;17.962;2023-05-10T10:02:55;101237.03;;;18.94;28.07
77019;BME280;66044;53.142;17.962;2023-05-10T10:05:32;101238.70;;;19.04;28.18
77019;BME280;66044;53.142;17.962;2023-05-10T10:08:00;101243.13;;;19.08;27.68
77019;BME280;66044;53.142;17.962;2023-05-10T10:10:27;101241.04;;;18.98;27.79
77019;BME280;66044;53.142;17.962;2023-05-10T10:12:54;101231.08;;;18.91;27.72
77019;BME280;66044;53.142;17.962;2023-05-10T10:15:22;101224.20;;;18.84;27.83
77019;BME280;66044;53.142;17.962;2023-05-10T10:17:50;101228.88;;;18.84;28.22
77019;BME280;66044;53.142;17.962;2023-05-10T10:20:18;101228.23;;;18.88;28.16
77019;BME280;66044;53.142;17.962;2023-05-10T10:22:45;101219.88;;;18.91;28.06
77019;BME280;66044;53.142;17.962;2023-05-10T10:25:14;101225.49;;;18.92;27.91
77019;BME280;66044;53.142;17.962;2023-05-10T10:30:37;101215.37;;;18.86;27.54
77019;BME280;66044;53.142;17.962;2023-05-10T10:35:58;101216.72;;;18.88;27.63
77019;BME280;66044;53.142;17.962;2023-05-10T10:38:36;101211.60;;;18.89;27.85
77019;BME280;66044;53.142;17.962;2023-05-10T10:41:09;101211.68;;;18.95;28.09
77019;BME280;66044;53.142;17.962;2023-05-10T10:43:36;101209.82;;;19.02;27.78
77019;BME280;66044;53.142;17.962;2023-05-10T10:46:16;101204.33;;;18.99;27.57
77019;BME280;66044;53.142;17.962;2023-05-10T10:48:52;101197.50;;;18.88;27.54
77019;BME280;66044;53.142;17.962;2023-05-10T10:51:40;101202.00;;;18.81;27.85
77019;BME280;66044;53.142;17.962;2023-05-10T10:54:29;101196.52;;;18.73;27.95
77019;BME280;66044;53.142;17.962;2023-05-10T10:57:11;101195.32;;;18.70;28.27
77019;BME280;66044;53.142;17.962;2023-05-10T10:59:44;101196.47;;;18.69;28.01
77019;BME280;66044;53.142;17.962;2023-05-10T11:02:33;101200.29;;;18.65;28.30
77019;BME280;66044;53.142;17.962;2023-05-10T11:07:57;101192.52;;;18.64;28.22
77019;BME280;66044;53.142;17.962;2023-05-10T11:10:25;101192.90;;;18.65;28.31
77019;BME280;66044;53.142;17.962;2023-05-10T11:12:58;101195.54;;;18.69;28.42
77019;BME280;66044;53.142;17.962;2023-05-10T11:15:38;101202.11;;;18.71;28.53
77019;BME280;66044;53.142;17.962;2023-05-10T11:18:19;101194.95;;;18.67;28.63
77019;BME280;66044;53.142;17.962;2023-05-10T11:21:11;101186.16;;;18.61;28.95
77019;BME280;66044;53.142;17.962;2023-05-10T11:26:08;101202.81;;;18.72;28.63
77019;BME280;66044;53.142;17.962;2023-05-10T11:28:47;101196.69;;;18.69;28.14
77019;BME280;66044;53.142;17.962;2023-05-10T11:31:15;101188.15;;;18.64;28.62
77019;BME280;66044;53.142;17.962;2023-05-10T11:33:53;101183.13;;;18.61;28.90
77019;BME280;66044;53.142;17.962;2023-05-10T11:36:23;101190.30;;;18.67;28.74
77019;BME280;66044;53.142;17.962;2023-05-10T11:38:49;101191.27;;;18.70;28.68
77019;BME280;66044;53.142;17.962;2023-05-10T11:41:18;101190.80;;;18.70;28.76
77019;BME280;66044;53.142;17.962;2023-05-10T11:43:49;101193.98;;;18.69;28.81
77019;BME280;66044;53.142;17.962;2023-05-10T11:46:19;101187.77;;;18.64;28.70
77019;BME280;66044;53.142;17.962;2023-05-10T11:48:49;101184.73;;;18.64;28.89
77019;BME280;66044;53.142;17.962;2023-05-10T11:51:21;101182.45;;;18.68;28.72
77019;BME280;66044;53.142;17.962;2023-05-10T11:53:49;101186.41;;;18.73;28.91
77019;BME280;66044;53.142;17.962;2023-05-10T11:56:16;101186.09;;;18.83;28.66
77019;BME280;66044;53.142;17.962;2023-05-10T11:58:43;101189.76;;;18.90;28.48
77019;BME280;66044;53.142;17.962;2023-05-10T12:01:10;101183.70;;;18.91;28.36
77019;BME280;66044;53.142;17.962;2023-05-10T12:03:37;101190.83;;;18.89;28.12
77019;BME280;66044;53.142;17.962;2023-05-10T12:06:04;101173.24;;;18.83;28.12
77019;BME280;66044;53.142;17.962;2023-05-10T12:08:30;101173.44;;;18.86;28.30
77019;BME280;66044;53.142;17.962;2023-05-10T12:11:07;101178.60;;;18.88;28.11
77019;BME280;66044;53.142;17.962;2023-05-10T12:13:38;101185.06;;;18.82;28.08
77019;BME280;66044;53.142;17.962;2023-05-10T12:18:40;101176.21;;;18.66;28.06
77019;BME280;66044;53.142;17.962;2023-05-10T12:21:10;101178.83;;;18.70;28.12
77019;BME280;66044;53.142;17.962;2023-05-10T12:23:38;101187.04;;;18.73;27.90
77019;BME280;66044;53.142;17.962;2023-05-10T12:26:05;101179.73;;;18.74;28.05
77019;BME280;66044;53.142;17.962;2023-05-10T12:28:32;101187.21;;;18.80;28.14
77019;BME280;66044;53.142;17.962;2023-05-10T12:30:59;101182.31;;;18.82;27.82
77019;BME280;66044;53.142;17.962;2023-05-10T12:33:26;101178.67;;;18.82;27.78
77019;BME280;66044;53.142;17.962;2023-05-10T12:35:54;101176.33;;;18.87;27.65
77019;BME280;66044;53.142;17.962;2023-05-10T12:40:51;101174.24;;;18.88;27.81
77019;BME280;66044;53.142;17.962;2023-05-10T12:43:17;101183.59;;;18.94;27.87
77019;BME280;66044;53.142;17.962;2023-05-10T12:45:44;101176.30;;;18.98;27.79
77019;BME280;66044;53.142;17.962;2023-05-10T12:48:15;101176.77;;;19.03;27.20
77019;BME280;66044;53.142;17.962;2023-05-10T12:50:41;101169.45;;;19.03;27.19
77019;BME280;66044;53.142;17.962;2023-05-10T12:53:07;101182.05;;;19.09;27.59
77019;BME280;66044;53.142;17.962;2023-05-10T12:55:34;101181.65;;;19.14;27.35
77019;BME280;66044;53.142;17.962;2023-05-10T12:58:01;101175.45;;;19.10;27.37
77019;BME280;66044;53.142;17.962;2023-05-10T13:00:27;101168.16;;;19.12;27.46
77019;BME280;66044;53.142;17.962;2023-05-10T13:02:53;101163.98;;;19.13;27.32
77019;BME280;66044;53.142;17.962;2023-05-10T13:05:20;101168.50;;;19.14;27.08
77019;BME280;66044;53.142;17.962;2023-05-10T13:07:46;101179.13;;;19.18;26.95
77019;BME280;66044;53.142;17.962;2023-05-10T13:10:13;101176.94;;;19.16;26.95
77019;BME280;66044;53.142;17.962;2023-05-10T13:12:39;101168.56;;;19.19;27.06
77019;BME280;66044;53.142;17.962;2023-05-10T13:15:06;101169.43;;;19.28;27.16
77019;BME280;66044;53.142;17.962;2023-05-10T13:17:33;101170.16;;;19.37;27.10
77019;BME280;66044;53.142;17.962;2023-05-10T13:20:00;101163.77;;;19.35;27.13